sensor_id;sensor_type;location;lat;lon;timestamp;P1;durP1;ratioP1;P2;durP2;ratioP2
30647;SDS011;17683;53.360;9.736;2023-03-23T00:02:06;10.27;;;8.43;;
30647;SDS011;17683;53.360;9.736;2023-03-23T00:04:32;13.82;;;9.95;;
30647;SDS011;17683;53.360;9.736;2023-03-23T00:06:57;13.45;;;9.30;;
30647;SDS011;17683;53.360;9.736;2023-03-23T00:09:27;14.48;;;9.90;;
30647;SDS011;17683;53.360;9.736;2023-03-23T00:11:55;12.35;;;10.25;;
30647;SDS011;17683;53.360;9.736;2023-03-23T00:14:22;11.38;;;10.13;;
30647;SDS011;17683;53.360;9.736;2023-03-23T00:16:49;13.55;;;10.32;;
30647;SDS011;17683;53.360;9.736;2023-03-23T00:19:16;13.57;;;11.00;;
30647;SDS011;17683;53.360;9.736;2023-03-23T00:21:44;14.55;;;10.43;;
30647;SDS011;17683;53.360;9.736;2023-03-23T00:24:17;15.05;;;11.65;;
30647;SDS011;17683;53.360;9.736;2023-03-23T00:26:47;17.20;;;11.90;;
30647;SDS011;17683;53.360;9.736;2023-03-23T00:29:14;13.80;;;11.38;;
30647;SDS011;17683;53.360;9.736;2023-03-23T00:31:46;17.85;;;12.07;;
30647;SDS011;17683;53.360;9.736;2023-03-23T00:34:13;17.15;;;12.80;;
30647;SDS011;17683;53.360;9.736;2023-03-23T00:36:44;17.02;;;12.60;;
30647;SDS011;17683;53.360;9.736;2023-03-23T00:39:11;16.83;;;11.85;;
30647;SDS011;17683;53.360;9.736;2023-03-23T00:41:37;14.38;;;11.80;;
30647;SDS011;17683;53.360;9.736;2023-03-23T00:44:03;14.75;;;12.00;;
30647;SDS011;17683;53.360;9.736;2023-03-23T00:46:29;18.25;;;13.75;;
30647;SDS011;17683;53.360;9.736;2023-03-23T00:48:55;18.50;;;13.55;;
30647;SDS011;17683;53.360;9.736;2023-03-23T00:51:22;17.88;;;13.23;;
30647;SDS011;17683;53.360;9.736;2023-03-23T00:53:48;16.92;;;13.27;;
30647;SDS011;17683;53.360;9.736;2023-03-23T00:56:14;18.65;;;13.32;;
30647;SDS011;17683;53.360;9.736;2023-03-23T00:58:40;19.58;;;14.73;;
30647;SDS011;17683;53.360;9.736;2023-03-23T01:01:06;15.77;;;13.85;;
30647;SDS011;17683;53.360;9.736;2023-03-23T01:03:32;17.38;;;13.70;;
30647;SDS011;17683;53.360;9.736;2023-03-23T01:06:07;19.85;;;15.23;;
30647;SDS011;17683;53.360;9.736;2023-03-23T01:08:37;18.60;;;13.50;;
30647;SDS011;17683;53.360;9.736;2023-03-23T01:11:11;16.85;;;13.73;;
30647;SDS011;17683;53.360;9.736;2023-03-23T01:13:38;18.73;;;14.50;;
30647;SDS011;17683;53.360;9.736;2023-03-23T01:16:05;16.40;;;13.23;;
30647;SDS011;17683;53.360;9.736;2023-03-23T01:18:31;16.63;;;14.73;;
30647;SDS011;17683;53.360;9.736;2023-03-23T01:20:57;17.42;;;14.05;;
30647;SDS011;17683;53.360;9.736;2023-03-23T01:23:23;15.43;;;13.13;;
30647;SDS011;17683;53.360;9.736;2023-03-23T01:25:49;19.45;;;14.23;;
30647;SDS011;17683;53.360;9.736;2023-03-23T01:28:15;19.88;;;13.75;;
30647;SDS011;17683;53.360;9.736;2023-03-23T01:30:40;17.90;;;13.07;;
30647;SDS011;17683;53.360;9.736;2023-03-23T01:33:06;20.38;;;12.55;;
30647;SDS011;17683;53.360;9.736;2023-03-23T01:35:32;18.63;;;13.27;;
30647;SDS011;17683;53.360;9.736;2023-03-23T01:37:57;18.92;;;14.07;;
30647;SDS011;17683;53.360;9.736;2023-03-23T01:40:23;17.00;;;12.75;;
30647;SDS011;17683;53.360;9.736;2023-03-23T01:42:52;19.30;;;12.25;;
30647;SDS011;17683;53.360;9.736;2023-03-23T01:48:00;16.42;;;11.52;;
30647;SDS011;17683;53.360;9.736;2023-03-23T01:50:29;14.88;;;12.48;;
30647;SDS011;17683;53.360;9.736;2023-03-23T01:53:12;14.13;;;11.15;;
30647;SDS011;17683;53.360;9.736;2023-03-23T01:55:39;14.32;;;11.23;;
30647;SDS011;17683;53.360;9.736;2023-03-23T01:58:08;15.43;;;11.18;;
30647;SDS011;17683;53.360;9.736;2023-03-23T02:00:36;13.93;;;11.00;;
30647;SDS011;17683;53.360;9.736;2023-03-23T02:03:07;15.98;;;12.27;;
30647;SDS011;17683;53.360;9.736;2023-03-23T02:05:36;13.60;;;11.20;;
30647;SDS011;17683;53.360;9.736;2023-03-23T02:08:04;14.68;;;11.23;;
30647;SDS011;17683;53.360;9.736;2023-03-23T02:10:33;14.77;;;11.13;;
30647;SDS011;17683;53.360;9.736;2023-03-23T02:13:00;12.55;;;10.57;;
30647;SDS011;17683;53.360;9.736;2023-03-23T02:15:33;15.23;;;11.30;;
30647;SDS011;17683;53.360;9.736;2023-03-23T02:23:29;16.15;;;11.80;;
30647;SDS011;17683;53.360;9.736;2023-03-23T02:34:29;14.70;;;11.88;;
30647;SDS011;17683;53.360;9.736;2023-03-23T02:37:05;16.05;;;11.60;;
30647;SDS011;17683;53.360;9.736;2023-03-23T02:39:45;13.55;;;11.50;;
30647;SDS011;17683;53.360;9.736;2023-03-23T02:42:23;14.02;;;11.13;;
30647;SDS011;17683;53.360;9.736;2023-03-23T02:44:54;15.75;;;12.40;;
30647;SDS011;17683;53.360;9.736;2023-03-23T02:47:22;14.88;;;11.68;;
30647;SDS011;17683;53.360;9.736;2023-03-23T02:49:51;12.60;;;10.95;;
30647;SDS011;17683;53.360;9.736;2023-03-23T02:52:24;13.10;;;11.68;;
30647;SDS011;17683;53.360;9.736;2023-03-23T02:54:53;14.32;;;10.82;;
30647;SDS011;17683;53.360;9.736;2023-03-23T02:57:21;15.95;;;11.18;;
30647;SDS011;17683;53.360;9.736;2023-03-23T02:59:48;13.18;;;11.45;;
30647;SDS011;17683;53.360;9.736;2023-03-23T03:02:18;12.48;;;11.18;;
30647;SDS011;17683;53.360;9.736;2023-03-23T03:04:48;16.70;;;12.45;;
30647;SDS011;17683;53.360;9.736;2023-03-23T03:10:26;14.45;;;11.88;;
30647;SDS011;17683;53.360;9.736;2023-03-23T03:20:51;15.63;;;11.80;;
30647;SDS011;17683;53.360;9.736;2023-03-23T03:23:23;15.27;;;12.10;;
30647;SDS011;17683;53.360;9.736;2023-03-23T03:25:51;14.00;;;11.68;;
30647;SDS011;17683;53.360;9.736;2023-03-23T03:28:19;18.33;;;12.40;;
30647;SDS011;17683;53.360;9.736;2023-03-23T03:31:05;15.27;;;11.82;;
30647;SDS011;17683;53.360;9.736;2023-03-23T03:33:32;19.55;;;11.63;;
30647;SDS011;17683;53.360;9.736;2023-03-23T03:36:02;12.80;;;11.15;;
30647;SDS011;17683;53.360;9.736;2023-03-23T03:38:40;16.77;;;11.45;;
30647;SDS011;17683;53.360;9.736;2023-03-23T03:43:33;12.68;;;11.00;;
30647;SDS011;17683;53.360;9.736;2023-03-23T03:46:00;16.45;;;11.43;;
30647;SDS011;17683;53.360;9.736;2023-03-23T03:48:26;12.85;;;10.75;;
30647;SDS011;17683;53.360;9.736;2023-03-23T03:50:51;17.60;;;11.75;;
30647;SDS011;17683;53.360;9.736;2023-03-23T03:53:17;16.83;;;12.20;;
30647;SDS011;17683;53.360;9.736;2023-03-23T03:55:43;15.02;;;11.40;;
30647;SDS011;17683;53.360;9.736;2023-03-23T03:58:10;18.17;;;12.63;;
30647;SDS011;17683;53.360;9.736;2023-03-23T04:00:36;17.42;;;12.23;;
30647;SDS011;17683;53.360;9.736;2023-03-23T04:03:01;12.10;;;10.90;;
30647;SDS011;17683;53.360;9.736;2023-03-23T04:05:27;15.95;;;11.80;;
30647;SDS011;17683;53.360;9.736;2023-03-23T04:07:56;15.40;;;10.98;;
30647;SDS011;17683;53.360;9.736;2023-03-23T04:10:26;15.75;;;11.65;;
30647;SDS011;17683;53.360;9.736;2023-03-23T04:12:54;13.82;;;11.25;;
30647;SDS011;17683;53.360;9.736;2023-03-23T04:15:20;15.63;;;12.70;;
30647;SDS011;17683;53.360;9.736;2023-03-23T04:17:46;14.93;;;12.48;;
30647;SDS011;17683;53.360;9.736;2023-03-23T04:20:12;14.20;;;11.77;;
30647;SDS011;17683;53.360;9.736;2023-03-23T04:22:42;16.70;;;11.90;;
30647;SDS011;17683;53.360;9.736;2023-03-23T04:25:14;15.50;;;12.70;;
30647;SDS011;17683;53.360;9.736;2023-03-23T04:27:42;17.23;;;12.70;;
30647;SDS011;17683;53.360;9.736;2023-03-23T04:30:08;17.42;;;12.05;;
30647;SDS011;17683;53.360;9.736;2023-03-23T04:32:37;18.10;;;12.35;;
30647;SDS011;17683;53.360;9.736;2023-03-23T04:35:05;16.38;;;12.00;;
30647;SDS011;17683;53.360;9.736;2023-03-23T04:37:31;15.57;;;11.93;;
30647;SDS011;17683;53.360;9.736;2023-03-23T04:39:57;15.98;;;12.52;;
30647;SDS011;17683;53.360;9.736;2023-03-23T04:42:30;14.45;;;11.25;;
30647;SDS011;17683;53.360;9.736;2023-03-23T04:44:57;15.02;;;11.02;;
30647;SDS011;17683;53.360;9.736;2023-03-23T04:47:23;14.07;;;11.10;;
30647;SDS011;17683;53.360;9.736;2023-03-23T04:49:54;16.15;;;12.60;;
30647;SDS011;17683;53.360;9.736;2023-03-23T04:52:21;13.13;;;11.32;;
30647;SDS011;17683;53.360;9.736;2023-03-23T04:54:47;12.93;;;10.35;;
30647;SDS011;17683;53.360;9.736;2023-03-23T04:57:13;14.38;;;11.77;;
30647;SDS011;17683;53.360;9.736;2023-03-23T04:59:40;16.25;;;11.63;;
30647;SDS011;17683;53.360;9.736;2023-03-23T05:02:06;12.63;;;10.43;;
30647;SDS011;17683;53.360;9.736;2023-03-23T05:04:32;13.27;;;10.00;;
30647;SDS011;17683;53.360;9.736;2023-03-23T05:06:58;13.85;;;10.65;;
30647;SDS011;17683;53.360;9.736;2023-03-23T05:09:24;11.63;;;9.85;;
30647;SDS011;17683;53.360;9.736;2023-03-23T05:11:50;11.57;;;9.35;;
30647;SDS011;17683;53.360;9.736;2023-03-23T05:14:16;15.80;;;9.25;;
30647;SDS011;17683;53.360;9.736;2023-03-23T05:16:41;13.77;;;9.10;;
30647;SDS011;17683;53.360;9.736;2023-03-23T05:19:07;10.18;;;8.65;;
30647;SDS011;17683;53.360;9.736;2023-03-23T05:21:33;12.45;;;8.80;;
30647;SDS011;17683;53.360;9.736;2023-03-23T05:23:59;10.43;;;8.00;;
30647;SDS011;17683;53.360;9.736;2023-03-23T05:26:25;14.32;;;9.20;;
30647;SDS011;17683;53.360;9.736;2023-03-23T05:28:56;12.20;;;7.38;;
30647;SDS011;17683;53.360;9.736;2023-03-23T05:31:24;9.27;;;8.02;;
30647;SDS011;17683;53.360;9.736;2023-03-23T05:33:50;12.65;;;8.15;;
30647;SDS011;17683;53.360;9.736;2023-03-23T05:36:16;11.85;;;8.60;;
30647;SDS011;17683;53.360;9.736;2023-03-23T05:38:42;10.93;;;7.93;;
30647;SDS011;17683;53.360;9.736;2023-03-23T05:41:11;9.13;;;7.57;;
30647;SDS011;17683;53.360;9.736;2023-03-23T05:43:37;11.98;;;8.00;;
30647;SDS011;17683;53.360;9.736;2023-03-23T05:46:03;12.80;;;7.95;;
30647;SDS011;17683;53.360;9.736;2023-03-23T05:48:28;11.80;;;7.22;;
30647;SDS011;17683;53.360;9.736;2023-03-23T05:50:54;10.52;;;6.70;;
30647;SDS011;17683;53.360;9.736;2023-03-23T05:53:21;10.02;;;7.18;;
30647;SDS011;17683;53.360;9.736;2023-03-23T05:55:46;10.95;;;6.68;;
30647;SDS011;17683;53.360;9.736;2023-03-23T05:58:12;9.52;;;6.90;;
30647;SDS011;17683;53.360;9.736;2023-03-23T06:00:38;8.90;;;6.32;;
30647;SDS011;17683;53.360;9.736;2023-03-23T06:03:04;10.60;;;6.88;;
30647;SDS011;17683;53.360;9.736;2023-03-23T06:05:30;11.32;;;6.82;;
30647;SDS011;17683;53.360;9.736;2023-03-23T06:07:57;11.73;;;6.65;;
30647;SDS011;17683;53.360;9.736;2023-03-23T06:10:24;9.88;;;7.35;;
30647;SDS011;17683;53.360;9.736;2023-03-23T06:12:51;12.50;;;6.38;;
30647;SDS011;17683;53.360;9.736;2023-03-23T06:15:17;7.43;;;5.75;;
30647;SDS011;17683;53.360;9.736;2023-03-23T06:17:44;8.18;;;5.60;;
30647;SDS011;17683;53.360;9.736;2023-03-23T06:20:10;6.90;;;5.30;;
30647;SDS011;17683;53.360;9.736;2023-03-23T06:22:36;8.25;;;6.05;;
30647;SDS011;17683;53.360;9.736;2023-03-23T06:25:03;6.22;;;4.90;;
30647;SDS011;17683;53.360;9.736;2023-03-23T06:27:30;6.03;;;5.15;;
30647;SDS011;17683;53.360;9.736;2023-03-23T06:29:56;6.85;;;4.88;;
30647;SDS011;17683;53.360;9.736;2023-03-23T06:32:22;7.32;;;5.10;;
30647;SDS011;17683;53.360;9.736;2023-03-23T06:34:49;7.95;;;4.72;;
30647;SDS011;17683;53.360;9.736;2023-03-23T06:37:15;7.93;;;4.78;;
30647;SDS011;17683;53.360;9.736;2023-03-23T06:39:41;8.25;;;4.93;;
30647;SDS011;17683;53.360;9.736;2023-03-23T06:42:10;6.85;;;4.38;;
30647;SDS011;17683;53.360;9.736;2023-03-23T06:44:37;7.00;;;4.35;;
30647;SDS011;17683;53.360;9.736;2023-03-23T06:47:03;8.90;;;4.70;;
30647;SDS011;17683;53.360;9.736;2023-03-23T06:49:29;9.20;;;4.45;;
30647;SDS011;17683;53.360;9.736;2023-03-23T06:51:56;5.60;;;3.97;;
30647;SDS011;17683;53.360;9.736;2023-03-23T06:54:22;7.65;;;4.80;;
30647;SDS011;17683;53.360;9.736;2023-03-23T06:56:48;6.78;;;4.47;;
30647;SDS011;17683;53.360;9.736;2023-03-23T06:59:14;5.05;;;3.75;;
30647;SDS011;17683;53.360;9.736;2023-03-23T07:01:40;5.20;;;4.15;;
30647;SDS011;17683;53.360;9.736;2023-03-23T07:04:06;6.88;;;4.18;;
30647;SDS011;17683;53.360;9.736;2023-03-23T07:06:31;10.35;;;4.13;;
30647;SDS011;17683;53.360;9.736;2023-03-23T07:08:57;5.88;;;4.22;;
30647;SDS011;17683;53.360;9.736;2023-03-23T07:11:23;6.53;;;4.00;;
30647;SDS011;17683;53.360;9.736;2023-03-23T07:13:50;6.57;;;3.72;;
30647;SDS011;17683;53.360;9.736;2023-03-23T07:16:16;5.97;;;3.95;;
30647;SDS011;17683;53.360;9.736;2023-03-23T07:18:42;6.80;;;3.83;;
30647;SDS011;17683;53.360;9.736;2023-03-23T07:21:08;6.35;;;3.95;;
30647;SDS011;17683;53.360;9.736;2023-03-23T07:23:35;6.97;;;4.30;;
30647;SDS011;17683;53.360;9.736;2023-03-23T07:26:01;5.97;;;3.58;;
30647;SDS011;17683;53.360;9.736;2023-03-23T07:28:28;8.02;;;4.50;;
30647;SDS011;17683;53.360;9.736;2023-03-23T07:30:54;8.00;;;4.13;;
30647;SDS011;17683;53.360;9.736;2023-03-23T07:33:20;5.18;;;3.78;;
30647;SDS011;17683;53.360;9.736;2023-03-23T07:35:46;6.18;;;4.18;;
30647;SDS011;17683;53.360;9.736;2023-03-23T07:38:12;5.78;;;3.83;;
30647;SDS011;17683;53.360;9.736;2023-03-23T07:40:39;5.03;;;4.40;;
30647;SDS011;17683;53.360;9.736;2023-03-23T07:43:05;6.15;;;4.63;;
30647;SDS011;17683;53.360;9.736;2023-03-23T07:45:32;7.32;;;4.40;;
30647;SDS011;17683;53.360;9.736;2023-03-23T07:47:58;5.57;;;4.70;;
30647;SDS011;17683;53.360;9.736;2023-03-23T07:50:25;8.80;;;4.82;;
30647;SDS011;17683;53.360;9.736;2023-03-23T07:52:53;7.18;;;4.93;;
30647;SDS011;17683;53.360;9.736;2023-03-23T07:55:19;5.70;;;5.10;;
30647;SDS011;17683;53.360;9.736;2023-03-23T07:57:48;5.85;;;4.95;;
30647;SDS011;17683;53.360;9.736;2023-03-23T08:00:15;5.78;;;5.18;;
30647;SDS011;17683;53.360;9.736;2023-03-23T08:02:46;7.32;;;4.55;;
30647;SDS011;17683;53.360;9.736;2023-03-23T08:05:13;6.80;;;5.15;;
30647;SDS011;17683;53.360;9.736;2023-03-23T08:07:40;6.00;;;5.20;;
30647;SDS011;17683;53.360;9.736;2023-03-23T08:10:07;7.85;;;5.30;;
30647;SDS011;17683;53.360;9.736;2023-03-23T08:12:40;5.72;;;5.03;;
30647;SDS011;17683;53.360;9.736;2023-03-23T08:15:07;5.55;;;5.05;;
30647;SDS011;17683;53.360;9.736;2023-03-23T08:17:37;7.80;;;6.05;;
30647;SDS011;17683;53.360;9.736;2023-03-23T08:20:05;8.63;;;5.68;;
30647;SDS011;17683;53.360;9.736;2023-03-23T08:22:35;12.30;;;6.18;;
30647;SDS011;17683;53.360;9.736;2023-03-23T08:25:02;8.30;;;4.22;;
30647;SDS011;17683;53.360;9.736;2023-03-23T08:27:28;3.08;;;2.10;;
30647;SDS011;17683;53.360;9.736;2023-03-23T08:29:54;3.28;;;2.30;;
30647;SDS011;17683;53.360;9.736;2023-03-23T08:32:20;5.88;;;2.00;;
30647;SDS011;17683;53.360;9.736;2023-03-23T08:34:46;5.45;;;1.70;;
30647;SDS011;17683;53.360;9.736;2023-03-23T08:37:12;3.97;;;1.80;;
30647;SDS011;17683;53.360;9.736;2023-03-23T08:39:38;7.30;;;1.98;;
30647;SDS011;17683;53.360;9.736;2023-03-23T08:42:04;5.50;;;2.20;;
30647;SDS011;17683;53.360;9.736;2023-03-23T08:44:29;4.07;;;1.52;;
30647;SDS011;17683;53.360;9.736;2023-03-23T08:46:55;3.65;;;2.08;;
30647;SDS011;17683;53.360;9.736;2023-03-23T08:49:22;7.32;;;1.50;;
30647;SDS011;17683;53.360;9.736;2023-03-23T08:51:48;3.08;;;1.30;;
30647;SDS011;17683;53.360;9.736;2023-03-23T08:54:14;3.75;;;1.55;;
30647;SDS011;17683;53.360;9.736;2023-03-23T08:56:42;5.25;;;1.60;;
30647;SDS011;17683;53.360;9.736;2023-03-23T08:59:08;2.63;;;1.63;;
30647;SDS011;17683;53.360;9.736;2023-03-23T09:01:34;5.35;;;1.80;;
30647;SDS011;17683;53.360;9.736;2023-03-23T09:03:59;6.25;;;1.60;;
30647;SDS011;17683;53.360;9.736;2023-03-23T09:06:25;6.18;;;2.00;;
30647;SDS011;17683;53.360;9.736;2023-03-23T09:08:52;3.78;;;1.55;;
30647;SDS011;17683;53.360;9.736;2023-03-23T09:11:20;7.75;;;1.70;;
30647;SDS011;17683;53.360;9.736;2023-03-23T09:13:46;4.00;;;1.30;;
30647;SDS011;17683;53.360;9.736;2023-03-23T09:16:12;4.78;;;1.40;;
30647;SDS011;17683;53.360;9.736;2023-03-23T09:18:39;8.07;;;1.85;;
30647;SDS011;17683;53.360;9.736;2023-03-23T09:21:05;5.00;;;1.70;;
30647;SDS011;17683;53.360;9.736;2023-03-23T09:23:31;5.65;;;1.48;;
30647;SDS011;17683;53.360;9.736;2023-03-23T09:25:58;9.07;;;2.10;;
30647;SDS011;17683;53.360;9.736;2023-03-23T09:28:25;6.28;;;1.77;;
30647;SDS011;17683;53.360;9.736;2023-03-23T09:30:51;6.20;;;1.98;;
30647;SDS011;17683;53.360;9.736;2023-03-23T09:33:21;4.55;;;1.85;;
30647;SDS011;17683;53.360;9.736;2023-03-23T09:35:47;8.98;;;1.73;;
30647;SDS011;17683;53.360;9.736;2023-03-23T09:38:12;6.35;;;1.80;;
30647;SDS011;17683;53.360;9.736;2023-03-23T09:40:42;9.18;;;2.80;;
30647;SDS011;17683;53.360;9.736;2023-03-23T09:46:03;5.60;;;2.28;;
30647;SDS011;17683;53.360;9.736;2023-03-23T09:51:36;13.15;;;2.90;;
30647;SDS011;17683;53.360;9.736;2023-03-23T09:56:38;9.60;;;2.60;;
30647;SDS011;17683;53.360;9.736;2023-03-23T10:01:53;8.63;;;2.35;;
30647;SDS011;17683;53.360;9.736;2023-03-23T10:04:45;7.20;;;2.78;;
30647;SDS011;17683;53.360;9.736;2023-03-23T10:07:18;8.93;;;2.75;;
30647;SDS011;17683;53.360;9.736;2023-03-23T10:09:50;9.88;;;2.67;;
30647;SDS011;17683;53.360;9.736;2023-03-23T10:12:21;10.50;;;2.70;;
30647;SDS011;17683;53.360;9.736;2023-03-23T10:17:33;13.35;;;3.15;;
30647;SDS011;17683;53.360;9.736;2023-03-23T10:25:36;12.90;;;3.08;;
30647;SDS011;17683;53.360;9.736;2023-03-23T10:33:26;15.63;;;3.17;;
30647;SDS011;17683;53.360;9.736;2023-03-23T10:36:08;8.32;;;2.63;;
30647;SDS011;17683;53.360;9.736;2023-03-23T10:38:40;10.23;;;3.08;;
30647;SDS011;17683;53.360;9.736;2023-03-23T10:41:13;12.05;;;3.00;;
30647;SDS011;17683;53.360;9.736;2023-03-23T10:43:41;14.10;;;3.13;;
30647;SDS011;17683;53.360;9.736;2023-03-23T10:48:37;16.33;;;3.72;;
30647;SDS011;17683;53.360;9.736;2023-03-23T10:51:05;17.90;;;4.05;;
30647;SDS011;17683;53.360;9.736;2023-03-23T10:53:36;9.60;;;3.17;;
30647;SDS011;17683;53.360;9.736;2023-03-23T10:56:19;12.82;;;3.20;;
30647;SDS011;17683;53.360;9.736;2023-03-23T10:58:50;10.70;;;3.47;;
30647;SDS011;17683;53.360;9.736;2023-03-23T11:01:18;11.52;;;4.35;;
30647;SDS011;17683;53.360;9.736;2023-03-23T11:03:52;12.07;;;3.85;;
30647;SDS011;17683;53.360;9.736;2023-03-23T11:06:19;15.75;;;3.80;;
30647;SDS011;17683;53.360;9.736;2023-03-23T11:08:55;8.68;;;3.55;;
30647;SDS011;17683;53.360;9.736;2023-03-23T11:11:27;8.85;;;3.85;;
30647;SDS011;17683;53.360;9.736;2023-03-23T11:13:58;10.60;;;3.72;;
30647;SDS011;17683;53.360;9.736;2023-03-23T11:16:28;11.38;;;2.67;;
30647;SDS011;17683;53.360;9.736;2023-03-23T11:18:57;7.50;;;3.03;;
30647;SDS011;17683;53.360;9.736;2023-03-23T11:21:24;11.07;;;2.95;;
30647;SDS011;17683;53.360;9.736;2023-03-23T11:23:53;10.13;;;3.13;;
30647;SDS011;17683;53.360;9.736;2023-03-23T11:31:39;7.50;;;2.78;;
30647;SDS011;17683;53.360;9.736;2023-03-23T11:34:18;6.40;;;3.30;;
30647;SDS011;17683;53.360;9.736;2023-03-23T11:36:50;7.10;;;3.00;;
30647;SDS011;17683;53.360;9.736;2023-03-23T11:41:52;15.07;;;3.58;;
30647;SDS011;17683;53.360;9.736;2023-03-23T11:44:20;11.90;;;3.25;;
30647;SDS011;17683;53.360;9.736;2023-03-23T11:52:00;11.70;;;3.00;;
30647;SDS011;17683;53.360;9.736;2023-03-23T11:57:05;11.30;;;3.15;;
30647;SDS011;17683;53.360;9.736;2023-03-23T11:59:34;11.43;;;3.28;;
30647;SDS011;17683;53.360;9.736;2023-03-23T12:02:12;11.63;;;3.92;;
30647;SDS011;17683;53.360;9.736;2023-03-23T12:07:37;16.48;;;3.22;;
30647;SDS011;17683;53.360;9.736;2023-03-23T12:10:47;13.27;;;3.20;;
30647;SDS011;17683;53.360;9.736;2023-03-23T12:19:06;11.77;;;3.33;;
30647;SDS011;17683;53.360;9.736;2023-03-23T12:24:39;14.48;;;3.72;;
30647;SDS011;17683;53.360;9.736;2023-03-23T12:27:29;16.60;;;4.00;;
30647;SDS011;17683;53.360;9.736;2023-03-23T12:30:35;13.30;;;4.10;;
30647;SDS011;17683;53.360;9.736;2023-03-23T12:33:57;12.57;;;3.72;;
30647;SDS011;17683;53.360;9.736;2023-03-23T12:42:13;11.57;;;4.32;;
30647;SDS011;17683;53.360;9.736;2023-03-23T12:47:22;10.15;;;3.70;;
30647;SDS011;17683;53.360;9.736;2023-03-23T12:50:23;8.68;;;3.45;;
30647;SDS011;17683;53.360;9.736;2023-03-23T12:53:06;15.90;;;4.13;;
30647;SDS011;17683;53.360;9.736;2023-03-23T12:58:48;6.47;;;3.72;;
30647;SDS011;17683;53.360;9.736;2023-03-23T13:01:20;9.57;;;3.33;;
30647;SDS011;17683;53.360;9.736;2023-03-23T13:06:27;11.13;;;3.38;;
30647;SDS011;17683;53.360;9.736;2023-03-23T13:12:05;7.25;;;2.50;;
30647;SDS011;17683;53.360;9.736;2023-03-23T13:14:38;6.45;;;2.53;;
30647;SDS011;17683;53.360;9.736;2023-03-23T13:22:47;5.13;;;2.67;;
30647;SDS011;17683;53.360;9.736;2023-03-23T13:25:46;8.30;;;2.55;;
30647;SDS011;17683;53.360;9.736;2023-03-23T13:28:47;9.35;;;2.85;;
30647;SDS011;17683;53.360;9.736;2023-03-23T13:31:25;6.85;;;2.47;;
30647;SDS011;17683;53.360;9.736;2023-03-23T13:34:01;8.15;;;2.70;;
30647;SDS011;17683;53.360;9.736;2023-03-23T13:36:52;7.55;;;2.45;;
30647;SDS011;17683;53.360;9.736;2023-03-23T13:42:01;5.50;;;2.38;;
30647;SDS011;17683;53.360;9.736;2023-03-23T13:47:22;4.30;;;2.13;;
30647;SDS011;17683;53.360;9.736;2023-03-23T13:54:51;8.20;;;2.60;;
30647;SDS011;17683;53.360;9.736;2023-03-23T13:57:38;4.65;;;2.25;;
30647;SDS011;17683;53.360;9.736;2023-03-23T14:10:55;3.78;;;1.25;;
30647;SDS011;17683;53.360;9.736;2023-03-23T14:16:22;4.72;;;1.27;;
30647;SDS011;17683;53.360;9.736;2023-03-23T14:18:55;5.55;;;1.52;;
30647;SDS011;17683;53.360;9.736;2023-03-23T14:21:26;5.47;;;1.58;;
30647;SDS011;17683;53.360;9.736;2023-03-23T14:24:15;5.00;;;1.33;;
30647;SDS011;17683;53.360;9.736;2023-03-23T14:26:44;5.00;;;1.45;;
30647;SDS011;17683;53.360;9.736;2023-03-23T14:29:12;4.70;;;1.13;;
30647;SDS011;17683;53.360;9.736;2023-03-23T14:31:38;6.90;;;2.28;;
30647;SDS011;17683;53.360;9.736;2023-03-23T14:34:12;7.22;;;1.38;;
30647;SDS011;17683;53.360;9.736;2023-03-23T14:36:40;8.65;;;1.48;;
30647;SDS011;17683;53.360;9.736;2023-03-23T14:41:45;10.75;;;2.72;;
30647;SDS011;17683;53.360;9.736;2023-03-23T14:44:16;3.78;;;1.48;;
30647;SDS011;17683;53.360;9.736;2023-03-23T14:46:46;5.75;;;1.80;;
30647;SDS011;17683;53.360;9.736;2023-03-23T14:49:14;6.95;;;1.80;;
30647;SDS011;17683;53.360;9.736;2023-03-23T14:51:52;6.00;;;1.75;;
30647;SDS011;17683;53.360;9.736;2023-03-23T14:54:25;5.80;;;1.77;;
30647;SDS011;17683;53.360;9.736;2023-03-23T14:56:52;7.82;;;2.30;;
30647;SDS011;17683;53.360;9.736;2023-03-23T14:59:19;5.55;;;2.03;;
30647;SDS011;17683;53.360;9.736;2023-03-23T15:01:46;7.85;;;2.42;;
30647;SDS011;17683;53.360;9.736;2023-03-23T15:06:42;9.57;;;1.73;;
30647;SDS011;17683;53.360;9.736;2023-03-23T15:09:15;5.57;;;1.77;;
30647;SDS011;17683;53.360;9.736;2023-03-23T15:11:50;4.68;;;1.40;;
30647;SDS011;17683;53.360;9.736;2023-03-23T15:14:29;7.50;;;2.00;;
30647;SDS011;17683;53.360;9.736;2023-03-23T15:16:58;9.10;;;1.88;;
30647;SDS011;17683;53.360;9.736;2023-03-23T15:19:35;6.00;;;1.92;;
30647;SDS011;17683;53.360;9.736;2023-03-23T15:22:04;4.90;;;1.17;;
30647;SDS011;17683;53.360;9.736;2023-03-23T15:24:33;5.82;;;1.65;;
30647;SDS011;17683;53.360;9.736;2023-03-23T15:27:15;10.10;;;1.58;;
30647;SDS011;17683;53.360;9.736;2023-03-23T15:29:57;6.30;;;1.70;;
30647;SDS011;17683;53.360;9.736;2023-03-23T15:32:46;4.95;;;1.58;;
30647;SDS011;17683;53.360;9.736;2023-03-23T15:35:13;6.20;;;1.90;;
30647;SDS011;17683;53.360;9.736;2023-03-23T15:37:45;5.50;;;1.80;;
30647;SDS011;17683;53.360;9.736;2023-03-23T15:40:14;4.13;;;1.70;;
30647;SDS011;17683;53.360;9.736;2023-03-23T15:42:45;9.93;;;1.33;;
30647;SDS011;17683;53.360;9.736;2023-03-23T15:50:18;6.57;;;1.73;;
30647;SDS011;17683;53.360;9.736;2023-03-23T15:52:50;7.25;;;1.63;;
30647;SDS011;17683;53.360;9.736;2023-03-23T15:55:37;7.28;;;1.88;;
30647;SDS011;17683;53.360;9.736;2023-03-23T15:58:07;4.38;;;1.67;;
30647;SDS011;17683;53.360;9.736;2023-03-23T16:00:37;4.65;;;1.45;;
30647;SDS011;17683;53.360;9.736;2023-03-23T16:03:05;7.07;;;1.98;;
30647;SDS011;17683;53.360;9.736;2023-03-23T16:05:35;4.78;;;1.27;;
30647;SDS011;17683;53.360;9.736;2023-03-23T16:08:01;5.95;;;1.85;;
30647;SDS011;17683;53.360;9.736;2023-03-23T16:10:27;8.27;;;1.73;;
30647;SDS011;17683;53.360;9.736;2023-03-23T16:12:53;5.32;;;2.05;;
30647;SDS011;17683;53.360;9.736;2023-03-23T16:15:19;4.68;;;1.13;;
30647;SDS011;17683;53.360;9.736;2023-03-23T16:17:45;4.78;;;1.75;;
30647;SDS011;17683;53.360;9.736;2023-03-23T16:20:18;4.68;;;1.45;;
30647;SDS011;17683;53.360;9.736;2023-03-23T16:22:46;3.50;;;1.25;;
30647;SDS011;17683;53.360;9.736;2023-03-23T16:25:13;7.53;;;1.88;;
30647;SDS011;17683;53.360;9.736;2023-03-23T16:27:39;5.80;;;1.60;;
30647;SDS011;17683;53.360;9.736;2023-03-23T16:30:13;4.25;;;1.85;;
30647;SDS011;17683;53.360;9.736;2023-03-23T16:32:44;4.43;;;1.70;;
30647;SDS011;17683;53.360;9.736;2023-03-23T16:35:11;5.68;;;1.65;;
30647;SDS011;17683;53.360;9.736;2023-03-23T16:37:38;10.30;;;2.00;;
30647;SDS011;17683;53.360;9.736;2023-03-23T16:40:09;3.58;;;1.40;;
30647;SDS011;17683;53.360;9.736;2023-03-23T16:42:36;7.65;;;1.58;;
30647;SDS011;17683;53.360;9.736;2023-03-23T16:45:02;4.63;;;1.60;;
30647;SDS011;17683;53.360;9.736;2023-03-23T16:47:28;7.47;;;1.88;;
30647;SDS011;17683;53.360;9.736;2023-03-23T16:49:53;6.07;;;1.83;;
30647;SDS011;17683;53.360;9.736;2023-03-23T16:52:19;5.25;;;1.45;;
30647;SDS011;17683;53.360;9.736;2023-03-23T16:54:45;3.38;;;1.45;;
30647;SDS011;17683;53.360;9.736;2023-03-23T16:57:11;2.92;;;1.33;;
30647;SDS011;17683;53.360;9.736;2023-03-23T16:59:37;6.93;;;2.30;;
30647;SDS011;17683;53.360;9.736;2023-03-23T17:02:03;5.22;;;2.40;;
30647;SDS011;17683;53.360;9.736;2023-03-23T17:04:29;5.22;;;2.00;;
30647;SDS011;17683;53.360;9.736;2023-03-23T17:06:56;6.45;;;2.45;;
30647;SDS011;17683;53.360;9.736;2023-03-23T17:09:25;6.57;;;1.55;;
30647;SDS011;17683;53.360;9.736;2023-03-23T17:11:51;3.28;;;1.73;;
30647;SDS011;17683;53.360;9.736;2023-03-23T17:14:17;5.50;;;1.85;;